createdAt,value
2018-01-15T00:01:53.774Z,102130.74
2018-01-15T00:04:21.457Z,102118.28
2018-01-15T00:06:49.010Z,102119.52
2018-01-15T00:09:16.519Z,102122.84
2018-01-15T00:11:44.197Z,102123.27
2018-01-15T00:14:11.674Z,102113.36
2018-01-15T00:16:39.168Z,102106.31
2018-01-15T00:19:06.681Z,102108.05
2018-01-15T00:21:34.180Z,102104.52
2018-01-15T00:24:01.666Z,102111.48
2018-01-15T00:26:29.306Z,102105.23
2018-01-15T00:28:56.786Z,102098.13
2018-01-15T00:31:24.250Z,102103.92
2018-01-15T00:33:51.937Z,102097.34
2018-01-15T00:36:19.449Z,102100.03
2018-01-15T00:38:46.943Z,102098.77
2018-01-15T00:41:14.447Z,102102.94
2018-01-15T00:43:41.942Z,102098.30
2018-01-15T00:46:09.541Z,102096.36
2018-01-15T00:48:37.084Z,102095.20
2018-01-15T00:51:04.577Z,102095.23
2018-01-15T00:53:32.323Z,102087.81
2018-01-15T00:55:59.869Z,102084.25
2018-01-15T00:58:27.427Z,102080.86
2018-01-15T01:00:54.951Z,102073.05
2018-01-15T01:03:22.430Z,102073.38
2018-01-15T01:05:49.917Z,102073.20
2018-01-15T01:08:17.571Z,102065.53
2018-01-15T01:10:45.070Z,102064.66
2018-01-15T01:13:12.566Z,102056.95
2018-01-15T01:15:40.086Z,102057.28
2018-01-15T01:18:07.559Z,102047.19
2018-01-15T01:20:35.057Z,102046.84
2018-01-15T01:23:02.658Z,102045.95
2018-01-15T01:25:30.194Z,102033.09
2018-01-15T01:27:57.659Z,102031.41
2018-01-15T01:30:25.206Z,102031.43
2018-01-15T01:32:52.666Z,102026.67
2018-01-15T01:35:20.164Z,102029.17
2018-01-15T01:37:47.651Z,102022.12
2018-01-15T01:40:15.122Z,102020.88
2018-01-15T01:42:42.624Z,102011.58
2018-01-15T01:45:10.230Z,102006.36
2018-01-15T01:47:37.698Z,102011.65
2018-01-15T01:50:05.165Z,101995.42
2018-01-15T01:52:32.696Z,101992.07
2018-01-15T01:55:00.192Z,101991.02
2018-01-15T01:57:27.682Z,101987.77
2018-01-15T01:59:55.205Z,101978.20
2018-01-15T02:02:22.694Z,101973.02
2018-01-15T02:04:50.195Z,101974.89
2018-01-15T02:07:17.775Z,101966.55
2018-01-15T02:09:45.345Z,101963.36
2018-01-15T02:12:12.812Z,101960.28
2018-01-15T02:14:40.373Z,101955.39
2018-01-15T02:17:07.834Z,101946.79
2018-01-15T02:19:35.321Z,101947.00
2018-01-15T02:22:02.828Z,101943.05
2018-01-15T02:24:30.314Z,101932.75
2018-01-15T02:26:57.862Z,101933.08
2018-01-15T02:29:25.359Z,101929.63
2018-01-15T02:31:52.835Z,101922.75
2018-01-15T02:34:20.312Z,101921.95
2018-01-15T02:36:47.807Z,101920.48
2018-01-15T02:39:15.293Z,101916.44
2018-01-15T02:41:42.867Z,101918.91
2018-01-15T02:44:10.322Z,101917.44
2018-01-15T02:46:37.785Z,101908.19
2018-01-15T02:49:05.312Z,101901.80
2018-01-15T02:51:32.778Z,101898.14
2018-01-15T02:54:00.263Z,101891.75
2018-01-15T02:56:27.741Z,101890.63
2018-01-15T02:58:55.504Z,101888.84
2018-01-15T03:01:22.996Z,101880.88
2018-01-15T03:03:50.462Z,101878.16
2018-01-15T03:06:17.944Z,101875.67
2018-01-15T03:08:45.422Z,101869.42
2018-01-15T03:11:12.906Z,101875.09
2018-01-15T03:13:40.391Z,101852.89
2018-01-15T03:16:07.848Z,101862.75
2018-01-15T03:18:35.356Z,101859.61
2018-01-15T03:21:02.877Z,101859.05
2018-01-15T03:23:30.361Z,101859.19
2018-01-15T03:25:57.933Z,101848.77
2018-01-15T03:28:25.423Z,101841.33
2018-01-15T03:30:52.899Z,101832.02
2018-01-15T03:33:20.389Z,101824.78
2018-01-15T03:35:47.874Z,101827.13
2018-01-15T03:38:15.336Z,101831.56
2018-01-15T03:40:42.840Z,101826.55
2018-01-15T03:43:10.305Z,101828.97
2018-01-15T03:45:37.795Z,101812.23
2018-01-15T03:48:05.283Z,101814.40
2018-01-15T03:50:32.756Z,101806.98
2018-01-15T03:53:00.258Z,101797.97
2018-01-15T03:55:27.816Z,101804.07
2018-01-15T03:57:55.281Z,101803.13
2018-01-15T04:00:22.846Z,101794.83
2018-01-15T04:02:50.351Z,101794.50
2018-01-15T04:05:17.842Z,101788.86
2018-01-15T04:07:45.335Z,101789.34
2018-01-15T04:10:12.844Z,101782.23
2018-01-15T04:12:40.334Z,101783.74
2018-01-15T04:15:07.810Z,101769.42
2018-01-15T04:17:35.337Z,101775.70
2018-01-15T04:20:02.892Z,101780.78
2018-01-15T04:22:30.370Z,101774.19
2018-01-15T04:24:57.846Z,101776.43
2018-01-15T04:27:25.354Z,101769.42
2018-01-15T04:29:52.866Z,101763.13
2018-01-15T04:32:20.332Z,101752.44
2018-01-15T04:34:47.854Z,101752.98
2018-01-15T04:37:15.368Z,101744.28
2018-01-15T04:39:42.840Z,101745.52
2018-01-15T04:42:10.294Z,101733.20
2018-01-15T04:44:37.852Z,101731.69
2018-01-15T04:47:05.336Z,101735.45
2018-01-15T04:49:32.877Z,101731.62
2018-01-15T04:52:00.433Z,101734.58
2018-01-15T04:54:27.894Z,101727.64
2018-01-15T04:56:55.373Z,101719.13
2018-01-15T04:59:22.853Z,101710.64
2018-01-15T05:01:50.332Z,101708.89
2018-01-15T05:04:17.837Z,101703.55
2018-01-15T05:06:45.416Z,101701.27
2018-01-15T05:09:12.906Z,101697.58
2018-01-15T05:11:40.633Z,101704.27
2018-01-15T05:14:08.119Z,101702.71
2018-01-15T05:16:35.637Z,101690.79
2018-01-15T05:19:03.295Z,101682.41
2018-01-15T05:21:30.773Z,101687.84
2018-01-15T05:23:58.261Z,101691.11
2018-01-15T05:26:25.761Z,101685.67
2018-01-15T05:28:53.227Z,101680.48
2018-01-15T05:31:20.690Z,101675.42
2018-01-15T05:33:48.205Z,101674.02
2018-01-15T05:36:15.694Z,101670.45
2018-01-15T05:38:43.191Z,101661.07
2018-01-15T05:41:10.680Z,101665.55
2018-01-15T05:43:38.161Z,101660.00
2018-01-15T05:46:05.662Z,101655.22
2018-01-15T05:48:33.174Z,101656.32
2018-01-15T05:51:00.668Z,101659.63
2018-01-15T05:53:28.185Z,101658.67
2018-01-15T05:55:55.792Z,101659.89
2018-01-15T05:58:23.253Z,101652.32
2018-01-15T06:00:50.762Z,101648.26
2018-01-15T06:03:18.231Z,101655.02
2018-01-15T06:05:45.713Z,101644.55
2018-01-15T06:08:13.225Z,101640.34
2018-01-15T06:10:40.717Z,101639.58
2018-01-15T06:13:08.206Z,101642.48
2018-01-15T06:15:35.699Z,101634.58
2018-01-15T06:18:03.185Z,101635.34
2018-01-15T06:20:30.665Z,101634.66
2018-01-15T06:22:58.221Z,101626.64
2018-01-15T06:25:25.710Z,101627.40
2018-01-15T06:27:53.195Z,101612.81
2018-01-15T06:30:20.667Z,101616.04
2018-01-15T06:32:48.140Z,101620.94
2018-01-15T06:35:15.778Z,101612.73
2018-01-15T06:37:43.234Z,101609.03
2018-01-15T06:40:10.711Z,101609.49
2018-01-15T06:42:38.221Z,101605.17
2018-01-15T06:45:05.730Z,101610.30
2018-01-15T06:47:33.195Z,101600.65
2018-01-15T06:50:00.683Z,101600.46
2018-01-15T06:52:28.167Z,101598.44
2018-01-15T06:54:55.625Z,101594.45
2018-01-15T06:57:23.090Z,101598.63
2018-01-15T06:59:50.574Z,101595.14
2018-01-15T07:02:18.063Z,101593.88
2018-01-15T07:04:45.526Z,101585.95
2018-01-15T07:07:13.045Z,101586.85
2018-01-15T07:09:40.684Z,101586.02
2018-01-15T07:12:08.380Z,101586.39
2018-01-15T07:14:35.875Z,101582.25
2018-01-15T07:17:03.369Z,101578.80
2018-01-15T07:19:31.027Z,101577.13
2018-01-15T07:21:58.511Z,101571.44
2018-01-15T07:24:26.003Z,101566.84
2018-01-15T07:26:53.497Z,101548.86
2018-01-15T07:29:21.157Z,101558.04
2018-01-15T07:31:48.650Z,101551.02
2018-01-15T07:34:16.152Z,101549.51
2018-01-15T07:36:43.646Z,101554.36
2018-01-15T07:39:11.243Z,101556.06
2018-01-15T07:41:38.803Z,101548.86
2018-01-15T07:44:06.277Z,101555.45
2018-01-15T07:46:33.782Z,101550.61
2018-01-15T07:49:01.340Z,101550.00
2018-01-15T07:51:28.855Z,101559.06
2018-01-15T07:53:56.395Z,101548.72
2018-01-15T07:56:23.905Z,101539.23
2018-01-15T07:58:51.376Z,101530.65
2018-01-15T08:01:18.862Z,101531.60
2018-01-15T08:03:46.347Z,101527.58
2018-01-15T08:06:13.869Z,101514.52
2018-01-15T08:08:41.355Z,101515.16
2018-01-15T08:11:08.818Z,101512.53
2018-01-15T08:13:36.357Z,101512.08
2018-01-15T08:16:03.826Z,101504.89
2018-01-15T08:18:31.286Z,101505.53
2018-01-15T08:20:58.802Z,101497.31
2018-01-15T08:23:26.290Z,101503.55
2018-01-15T08:25:53.749Z,101502.71
2018-01-15T08:28:21.240Z,101501.75
2018-01-15T08:30:48.702Z,101486.89
2018-01-15T08:33:16.201Z,101484.67
2018-01-15T08:35:43.744Z,101477.83
2018-01-15T08:38:11.225Z,101475.23
2018-01-15T08:40:38.706Z,101474.41
2018-01-15T08:43:06.256Z,101468.69
2018-01-15T08:45:33.779Z,101465.51
2018-01-15T08:48:01.239Z,101463.43
2018-01-15T08:50:28.757Z,101465.27
2018-01-15T08:52:56.349Z,101458.50
2018-01-15T08:55:23.814Z,101460.89
2018-01-15T08:57:51.378Z,101458.74
2018-01-15T09:00:18.854Z,101439.22
2018-01-15T09:02:46.395Z,101455.30
2018-01-15T09:05:13.907Z,101445.77
2018-01-15T09:07:41.434Z,101438.69
2018-01-15T09:10:08.993Z,101444.38
2018-01-15T09:12:36.524Z,101436.19
2018-01-15T09:15:04.738Z,101424.21
2018-01-15T09:17:32.205Z,101427.84
2018-01-15T09:19:59.709Z,101416.44
2018-01-15T09:22:27.210Z,101410.28
2018-01-15T09:24:54.726Z,101411.81
2018-01-15T09:27:22.420Z,101404.16
2018-01-15T09:29:49.882Z,101400.94
2018-01-15T09:32:17.365Z,101400.63
2018-01-15T09:34:44.846Z,101402.55
2018-01-15T09:37:12.375Z,101379.73
2018-01-15T09:39:39.872Z,101390.23
2018-01-15T09:42:07.354Z,101393.91
2018-01-15T09:44:34.874Z,101384.38
2018-01-15T09:47:02.372Z,101378.96
2018-01-15T09:49:29.897Z,101382.13
2018-01-15T09:51:57.503Z,101372.95
2018-01-15T09:54:24.962Z,101371.18
2018-01-15T09:56:52.449Z,101371.65
2018-01-15T09:59:19.962Z,101359.70
2018-01-15T10:01:47.485Z,101345.64
2018-01-15T10:04:14.998Z,101344.48
2018-01-15T10:06:42.559Z,101334.13
2018-01-15T10:09:10.028Z,101330.54
2018-01-15T10:11:37.582Z,101327.63
2018-01-15T10:14:05.068Z,101321.63
2018-01-15T10:16:32.552Z,101309.27
2018-01-15T10:19:00.044Z,101313.44
2018-01-15T10:21:27.505Z,101306.02
2018-01-15T10:23:55.214Z,101300.12
2018-01-15T10:26:22.771Z,101285.61
2018-01-15T10:28:50.257Z,101272.29
2018-01-15T10:31:17.791Z,101277.51
2018-01-15T10:33:45.284Z,101263.71
2018-01-15T10:36:12.769Z,101262.84
2018-01-15T10:38:40.227Z,101257.48
2018-01-15T10:41:07.716Z,101256.00
2018-01-15T10:43:35.205Z,101253.39
2018-01-15T10:46:02.690Z,101252.28
2018-01-15T10:48:30.181Z,101245.33
2018-01-15T10:50:57.666Z,101243.67
2018-01-15T10:53:25.125Z,101222.98
2018-01-15T10:55:52.598Z,101216.44
2018-01-15T10:58:20.087Z,101211.45
2018-01-15T11:00:51.392Z,101199.09
2018-01-15T11:03:18.874Z,101189.80
2018-01-15T11:05:46.647Z,101173.34
2018-01-15T11:08:14.129Z,101177.03
2018-01-15T11:10:41.779Z,101167.19
2018-01-15T11:13:09.300Z,101154.29
2018-01-15T11:15:36.785Z,101157.39
2018-01-15T11:18:04.289Z,101149.14
2018-01-15T11:20:31.754Z,101146.91
2018-01-15T11:22:59.250Z,101149.66
2018-01-15T11:25:26.779Z,101135.14
2018-01-15T11:27:54.241Z,101122.88
2018-01-15T11:30:21.741Z,101118.53
2018-01-15T11:32:49.254Z,101118.87
2018-01-15T11:35:16.825Z,101113.02
2018-01-15T11:37:44.316Z,101116.78
2018-01-15T11:40:11.804Z,101102.91
2018-01-15T11:42:39.288Z,101098.47
2018-01-15T11:45:06.740Z,101095.56
2018-01-15T11:47:34.199Z,101082.19
2018-01-15T11:50:01.704Z,101074.24
2018-01-15T11:52:29.189Z,101064.89
2018-01-15T11:54:56.654Z,101052.08
2018-01-15T11:57:24.123Z,101048.23
2018-01-15T11:59:51.610Z,101031.98
2018-01-15T12:02:19.123Z,101040.17
2018-01-15T12:04:46.585Z,101046.97
2018-01-15T12:07:14.171Z,101045.34
2018-01-15T12:09:41.633Z,101038.84
2018-01-15T12:12:09.157Z,101018.51
2018-01-15T12:14:36.662Z,101022.33
2018-01-15T12:17:04.174Z,101007.25
2018-01-15T12:19:31.646Z,100998.39
2018-01-15T12:22:00.233Z,100983.20
2018-01-15T12:24:28.630Z,100971.63
2018-01-15T12:26:56.121Z,100978.83
2018-01-15T12:29:23.619Z,100964.00
2018-01-15T12:31:51.098Z,100955.41
2018-01-15T12:34:18.557Z,100941.19
2018-01-15T12:36:46.068Z,100945.52
2018-01-15T12:39:13.530Z,100942.68
2018-01-15T12:41:41.043Z,100936.88
2018-01-15T12:44:08.517Z,100929.70
2018-01-15T12:46:36.115Z,100924.51
2018-01-15T12:49:03.617Z,100924.34
2018-01-15T12:51:31.101Z,100915.86
2018-01-15T12:53:58.614Z,100910.95
2018-01-15T12:56:26.098Z,100904.52
2018-01-15T12:58:53.567Z,100899.82
2018-01-15T13:01:21.075Z,100908.10
2018-01-15T13:03:48.668Z,100899.71
2018-01-15T13:06:20.158Z,100894.75
2018-01-15T13:08:49.498Z,100878.12
2018-01-15T13:11:17.004Z,100871.33
2018-01-15T13:13:44.474Z,100865.09
2018-01-15T13:16:11.949Z,100841.84
2018-01-15T13:18:39.444Z,100835.48
2018-01-15T13:21:06.976Z,100838.47
2018-01-15T13:23:34.456Z,100855.23
2018-01-15T13:26:01.945Z,100844.92
2018-01-15T13:28:29.407Z,100851.10
2018-01-15T13:30:56.870Z,100843.56
2018-01-15T13:33:24.454Z,100849.40
2018-01-15T13:35:51.934Z,100844.23
2018-01-15T13:38:19.501Z,100841.45
2018-01-15T13:40:46.970Z,100833.06
2018-01-15T13:43:14.444Z,100825.12
2018-01-15T13:45:41.926Z,100818.68
2018-01-15T13:48:09.438Z,100816.41
2018-01-15T13:50:36.963Z,100807.44
2018-01-15T13:53:04.555Z,100804.36
2018-01-15T13:55:32.022Z,100802.05
2018-01-15T13:57:59.495Z,100789.59
2018-01-15T14:00:27.025Z,100786.52
2018-01-15T14:02:54.491Z,100779.82
2018-01-15T14:05:21.967Z,100785.75
2018-01-15T14:07:49.472Z,100775.53
2018-01-15T14:10:16.968Z,100775.02
2018-01-15T14:12:44.470Z,100778.38
2018-01-15T14:15:11.949Z,100762.41
2018-01-15T14:17:39.534Z,100750.28
2018-01-15T14:20:07.029Z,100738.36
2018-01-15T14:22:34.512Z,100744.20
2018-01-15T14:25:01.994Z,100737.77
2018-01-15T14:27:29.469Z,100736.45
2018-01-15T14:29:56.942Z,100733.83
2018-01-15T14:32:24.403Z,100726.31
2018-01-15T14:34:51.873Z,100722.56
2018-01-15T14:37:19.413Z,100715.74
2018-01-15T14:39:46.908Z,100704.33
2018-01-15T14:42:15.279Z,100685.09
2018-01-15T14:44:42.779Z,100687.20
2018-01-15T14:47:10.238Z,100680.83
2018-01-15T14:49:37.901Z,100677.91
2018-01-15T14:52:05.481Z,100668.61
2018-01-15T14:54:32.953Z,100666.56
2018-01-15T14:57:00.433Z,100672.71
2018-01-15T14:59:27.948Z,100665.31
2018-01-15T15:01:55.487Z,100657.94
2018-01-15T15:04:22.973Z,100643.91
2018-01-15T15:06:50.450Z,100641.23
2018-01-15T15:09:17.942Z,100635.61
2018-01-15T15:11:45.450Z,100622.14
2018-01-15T15:14:13.033Z,100631.50
2018-01-15T15:16:40.522Z,100615.31
2018-01-15T15:19:08.034Z,100611.13
2018-01-15T15:21:35.539Z,100594.33
2018-01-15T15:24:03.021Z,100594.50
2018-01-15T15:26:30.542Z,100594.59
2018-01-15T15:28:58.030Z,100597.77
2018-01-15T15:31:25.507Z,100583.75
2018-01-15T15:33:53.018Z,100571.56
2018-01-15T15:36:20.498Z,100556.64
2018-01-15T15:38:47.978Z,100546.95
2018-01-15T15:41:15.474Z,100549.33
2018-01-15T15:43:42.960Z,100537.15
2018-01-15T15:46:10.430Z,100535.32
2018-01-15T15:48:37.911Z,100529.97
2018-01-15T15:51:05.394Z,100521.55
2018-01-15T15:53:32.869Z,100511.61
2018-01-15T15:56:00.358Z,100518.29
2018-01-15T15:58:27.900Z,100505.41
2018-01-15T16:00:55.334Z,100494.98
2018-01-15T16:03:22.830Z,100487.47
2018-01-15T16:05:50.334Z,100473.52
2018-01-15T16:08:17.842Z,100470.97
2018-01-15T16:10:45.538Z,100465.38
2018-01-15T16:13:13.024Z,100464.31
2018-01-15T16:15:40.490Z,100463.24
2018-01-15T16:18:07.966Z,100446.05
2018-01-15T16:20:35.450Z,100443.03
2018-01-15T16:23:02.936Z,100440.26
2018-01-15T16:25:30.402Z,100427.92
2018-01-15T16:27:57.870Z,100430.86
2018-01-15T16:30:25.345Z,100426.51
2018-01-15T16:32:52.833Z,100418.72
2018-01-15T16:35:20.321Z,100418.89
2018-01-15T16:37:48.046Z,100421.53
2018-01-15T16:40:15.536Z,100412.06
2018-01-15T16:42:43.010Z,100408.91
2018-01-15T16:45:10.547Z,100407.48
2018-01-15T16:47:38.034Z,100398.80
2018-01-15T16:50:11.242Z,100385.98
2018-01-15T16:52:38.728Z,100389.48
2018-01-15T16:55:06.213Z,100386.91
2018-01-15T16:57:33.713Z,100378.48
2018-01-15T17:00:01.196Z,100369.23
2018-01-15T17:02:28.696Z,100363.27
2018-01-15T17:04:56.155Z,100368.86
2018-01-15T17:07:23.653Z,100349.48
2018-01-15T17:09:51.567Z,100352.42
2018-01-15T17:12:19.065Z,100349.75
2018-01-15T17:14:46.552Z,100343.06
2018-01-15T17:17:14.027Z,100332.00
2018-01-15T17:19:41.505Z,100331.83
2018-01-15T17:22:09.210Z,100318.27
2018-01-15T17:24:36.697Z,100312.80
2018-01-15T17:27:04.225Z,100298.03
2018-01-15T17:29:31.697Z,100307.80
2018-01-15T17:31:59.202Z,100294.65
2018-01-15T17:34:26.757Z,100292.86
2018-01-15T17:36:54.237Z,100275.94
2018-01-15T17:39:21.714Z,100282.31
2018-01-15T17:41:49.194Z,100260.63
2018-01-15T17:44:16.691Z,100269.05
2018-01-15T17:46:44.175Z,100269.98
2018-01-15T17:49:11.637Z,100252.52
2018-01-15T17:51:39.102Z,100256.25
2018-01-15T17:54:06.929Z,100242.09
2018-01-15T17:56:34.388Z,100242.41
2018-01-15T17:59:01.846Z,100232.09
2018-01-15T18:01:29.347Z,100237.48
2018-01-15T18:03:56.842Z,100238.54
2018-01-15T18:06:24.304Z,100220.90
2018-01-15T18:08:51.794Z,100221.83
2018-01-15T18:11:19.254Z,100216.58
2018-01-15T18:13:46.734Z,100217.27
2018-01-15T18:16:14.258Z,100208.33
2018-01-15T18:18:41.715Z,100206.82
2018-01-15T18:21:09.170Z,100212.03
2018-01-15T18:23:36.674Z,100211.55
2018-01-15T18:26:04.181Z,100203.09
2018-01-15T18:28:31.638Z,100203.81
2018-01-15T18:30:59.149Z,100204.50
2018-01-15T18:33:26.635Z,100201.55
2018-01-15T18:35:54.103Z,100192.44
2018-01-15T18:38:21.657Z,100191.38
2018-01-15T18:40:49.142Z,100175.90
2018-01-15T18:43:16.630Z,100174.62
2018-01-15T18:45:44.210Z,100168.64
2018-01-15T18:48:11.698Z,100158.77
2018-01-15T18:50:39.221Z,100151.34
2018-01-15T18:53:06.681Z,100158.02
2018-01-15T18:55:38.145Z,100149.30
2018-01-15T18:58:05.650Z,100143.41
2018-01-15T19:00:33.133Z,100130.08
2018-01-15T19:03:00.605Z,100133.82
2018-01-15T19:05:28.074Z,100132.20
2018-01-15T19:07:55.589Z,100132.37
2018-01-15T19:10:23.086Z,100122.98
2018-01-15T19:12:50.570Z,100119.09
2018-01-15T19:15:18.054Z,100112.17
2018-01-15T19:17:45.514Z,100112.59
2018-01-15T19:20:12.974Z,100113.20
2018-01-15T19:22:40.476Z,100099.36
2018-01-15T19:25:07.968Z,100100.16
2018-01-15T19:27:35.527Z,100088.03
2018-01-15T19:30:03.016Z,100078.61
2018-01-15T19:32:30.492Z,100067.41
2018-01-15T19:35:18.858Z,100047.69
2018-01-15T19:37:46.613Z,100037.52
2018-01-15T19:40:14.122Z,100020.33
2018-01-15T19:42:41.595Z,100014.73
2018-01-15T19:45:14.536Z,100007.75
2018-01-15T19:50:55.020Z,99986.22
2018-01-15T19:53:28.075Z,99974.56
2018-01-15T19:56:01.127Z,99961.64
2018-01-15T19:58:34.241Z,99963.25
2018-01-15T20:01:07.559Z,99959.02
2018-01-15T20:03:40.807Z,99949.27
2018-01-15T20:06:13.838Z,99940.84
2018-01-15T20:08:46.866Z,99928.58
2018-01-15T20:11:14.362Z,99923.63
2018-01-15T20:13:41.835Z,99908.30
2018-01-15T20:16:09.319Z,99905.17
2018-01-15T20:18:36.807Z,99897.00
2018-01-15T20:21:04.294Z,99891.02
2018-01-15T20:23:31.817Z,99885.14
2018-01-15T20:25:59.358Z,99881.44
2018-01-15T20:28:26.889Z,99869.59
2018-01-15T20:30:54.393Z,99859.34
2018-01-15T20:33:21.895Z,99858.75
2018-01-15T20:35:49.372Z,99862.11
2018-01-15T20:38:16.903Z,99851.45
2018-01-15T20:40:44.402Z,99838.73
2018-01-15T20:43:11.910Z,99816.27
2018-01-15T20:45:39.518Z,99816.03
2018-01-15T20:48:07.072Z,99805.66
2018-01-15T20:50:34.534Z,99809.66
2018-01-15T20:53:02.094Z,99812.03
2018-01-15T20:55:29.814Z,99805.77
2018-01-15T20:57:57.294Z,99794.61
2018-01-15T21:00:24.868Z,99783.08
2018-01-15T21:02:52.345Z,99777.55
2018-01-15T21:05:19.798Z,99775.69
2018-01-15T21:07:47.258Z,99767.03
2018-01-15T21:10:14.758Z,99755.91
2018-01-15T21:12:42.246Z,99738.99
2018-01-15T21:15:09.735Z,99723.03
2018-01-15T21:17:37.224Z,99712.25
2018-01-15T21:20:04.675Z,99719.55
2018-01-15T21:22:32.168Z,99705.39
2018-01-15T21:24:59.672Z,99708.12
2018-01-15T21:27:27.138Z,99707.61
2018-01-15T21:29:54.625Z,99704.86
2018-01-15T21:32:22.582Z,99679.79
2018-01-15T21:34:50.057Z,99674.75
2018-01-15T21:37:17.632Z,99670.97
2018-01-15T21:39:45.216Z,99661.84
2018-01-15T21:42:12.710Z,99653.02
2018-01-15T21:44:40.166Z,99642.22
2018-01-15T21:47:07.649Z,99639.66
2018-01-15T21:49:35.214Z,99632.06
2018-01-15T21:52:02.699Z,99611.95
2018-01-15T21:54:30.181Z,99605.16
2018-01-15T21:56:57.638Z,99600.23
2018-01-15T21:59:25.121Z,99598.89
2018-01-15T22:01:52.594Z,99594.55
2018-01-15T22:04:20.572Z,99591.06
2018-01-15T22:06:48.053Z,99586.62
2018-01-15T22:09:15.591Z,99586.84
2018-01-15T22:11:43.146Z,99581.58
2018-01-15T22:14:10.694Z,99587.43
2018-01-15T22:16:38.152Z,99574.37
2018-01-15T22:19:05.648Z,99583.72
2018-01-15T22:21:33.134Z,99576.30
2018-01-15T22:24:00.585Z,99577.45
2018-01-15T22:26:28.039Z,99576.12
2018-01-15T22:28:55.569Z,99567.70
2018-01-15T22:31:23.018Z,99560.02
2018-01-15T22:33:50.473Z,99549.45
2018-01-15T22:36:17.949Z,99548.34
2018-01-15T22:38:45.440Z,99535.80
2018-01-15T22:41:12.908Z,99517.30
2018-01-15T22:43:40.405Z,99512.06
2018-01-15T22:46:07.888Z,99508.47
2018-01-15T22:48:35.387Z,99503.72
2018-01-15T22:51:02.878Z,99492.11
2018-01-15T22:53:30.338Z,99480.53
2018-01-15T22:55:57.879Z,99469.64
2018-01-15T22:58:25.373Z,99469.11
2018-01-15T23:00:52.849Z,99449.61
2018-01-15T23:03:20.345Z,99457.41
2018-01-15T23:05:47.867Z,99446.72
2018-01-15T23:08:15.325Z,99439.75
2018-01-15T23:10:42.801Z,99433.27
2018-01-15T23:13:10.301Z,99427.22
2018-01-15T23:15:37.854Z,99423.30
2018-01-15T23:18:05.347Z,99410.58
2018-01-15T23:20:32.860Z,99391.05
2018-01-15T23:23:00.326Z,99399.34
2018-01-15T23:25:27.807Z,99378.22
2018-01-15T23:27:55.317Z,99385.30
2018-01-15T23:30:22.782Z,99375.44
2018-01-15T23:32:50.244Z,99365.68
2018-01-15T23:35:17.722Z,99361.98
2018-01-15T23:37:45.174Z,99363.73
2018-01-15T23:40:12.735Z,99355.83
2018-01-15T23:42:40.231Z,99339.17
2018-01-15T23:45:07.726Z,99340.50
2018-01-15T23:47:35.193Z,99328.80
2018-01-15T23:50:02.711Z,99323.15
2018-01-15T23:52:30.171Z,99323.36
2018-01-15T23:54:57.633Z,99310.23
2018-01-15T23:57:25.113Z,99304.67
2018-01-15T23:59:52.597Z,99296.66
